Time;durP1;ratioP1;P1;durP2;ratioP2;P2;SDS_P1;SDS_P2;PMS_P1;PMS_P2;Temp;Humidity;BMP_temperature;BMP_pressure;BME280_temperature;BME280_humidity;BME280_pressure;Samples;Min_cycle;Max_cycle;Signal;HPM_P1;HPM_P2
2022/09/14 00:00:53;;;;;;;6.90;1.55;;;16.90;99.00;;;;;;5049189;28;20408;-73
2022/09/14 00:03:19;;;;;;;9.55;1.23;;;16.90;99.00;;;;;;5048982;28;20108;-73
2022/09/14 00:05:45;;;;;;;5.90;0.98;;;16.90;99.10;;;;;;5049136;28;20033;-73
2022/09/14 00:08:11;;;;;;;3.72;0.95;;;16.90;99.00;;;;;;5048742;28;20028;-73
2022/09/14 00:10:39;;;;;;;4.68;0.80;;;17.00;99.10;;;;;;5048990;28;20439;-73
2022/09/14 00:13:05;;;;;;;6.13;1.40;;;16.80;99.20;;;;;;5048832;28;20029;-73
2022/09/14 00:15:30;;;;;;;2.95;1.10;;;16.80;99.10;;;;;;5049093;28;20042;-73
2022/09/14 00:17:56;;;;;;;6.50;1.10;;;16.80;99.00;;;;;;5049030;28;20040;-73
2022/09/14 00:20:21;;;;;;;3.17;0.75;;;16.90;99.00;;;;;;5067954;28;20030;-74
2022/09/14 00:22:47;;;;;;;8.43;0.93;;;16.80;99.00;;;;;;5071147;28;20044;-72
2022/09/14 00:25:12;;;;;;;6.13;0.85;;;16.90;99.10;;;;;;5072445;28;20108;-73
2022/09/14 00:27:38;;;;;;;6.05;0.95;;;16.80;99.10;;;;;;5072251;28;20033;-73
2022/09/14 00:30:05;;;;;;;2.72;0.75;;;16.90;99.00;;;;;;5071447;28;20107;-73
2022/09/14 00:32:30;;;;;;;2.75;0.90;;;17.10;98.90;;;;;;5045052;28;20107;-73
2022/09/14 00:34:56;;;;;;;5.05;0.90;;;17.30;99.10;;;;;;5060480;28;20236;-73
2022/09/14 00:37:21;;;;;;;4.30;0.95;;;17.90;99.30;;;;;;5070021;28;20036;-73
2022/09/14 00:39:47;;;;;;;4.35;1.25;;;16.80;99.00;;;;;;5061354;28;20044;-73
2022/09/14 00:42:18;;;;;;;5.65;0.85;;;16.80;99.30;;;;;;5055545;28;20481;-72
2022/09/14 00:44:46;;;;;;;6.45;1.08;;;16.80;99.40;;;;;;5070858;28;20071;-72
2022/09/14 00:47:14;;;;;;;4.20;1.35;;;16.80;99.60;;;;;;5072129;28;20476;-72
2022/09/14 00:49:41;;;;;;;5.35;0.95;;;17.90;99.70;;;;;;5072356;28;20477;-72
2022/09/14 00:52:16;;;;;;;3.10;1.13;;;16.70;99.50;;;;;;5072091;28;20545;-72
2022/09/14 00:54:47;;;;;;;4.78;0.80;;;16.80;99.70;;;;;;5071824;28;20412;-72
2022/09/14 00:57:14;;;;;;;2.58;0.98;;;16.70;99.70;;;;;;5053895;28;20481;-72
2022/09/14 00:59:41;;;;;;;8.18;1.42;;;16.70;99.60;;;;;;5051611;28;20045;-72
2022/09/14 01:02:09;;;;;;;5.00;1.20;;;16.70;99.70;;;;;;5053748;28;20029;-71
2022/09/14 01:04:36;;;;;;;4.18;0.90;;;16.80;99.90;;;;;;5052812;28;20101;-72
2022/09/14 01:07:23;;;;;;;3.80;0.90;;;16.70;99.60;;;;;;5051983;28;20080;-72
2022/09/14 01:10:09;;;;;;;5.90;1.70;;;16.70;99.30;;;;;;5051076;28;20043;-72
2022/09/14 01:13:07;;;;;;;3.58;0.80;;;16.60;99.90;;;;;;5049325;28;20025;-72
2022/09/14 01:15:41;;;;;;;5.63;1.08;;;16.60;99.50;;;;;;5042905;28;20025;-72
2022/09/14 01:18:23;;;;;;;4.03;0.88;;;16.50;99.00;;;;;;5051671;28;20158;-72
2022/09/14 01:21:00;;;;;;;7.40;1.52;;;16.50;99.90;;;;;;5047280;28;20028;-72
2022/09/14 01:23:35;;;;;;;5.03;1.23;;;16.30;99.90;;;;;;5057269;28;20043;-72
2022/09/14 01:26:39;;;;;;;3.95;0.70;;;16.50;99.90;;;;;;5071149;28;20103;-72
2022/09/14 01:29:24;;;;;;;5.03;0.93;;;16.40;99.90;;;;;;5042885;28;20044;-72
2022/09/14 01:32:01;;;;;;;2.80;0.80;;;16.40;99.10;;;;;;5070692;28;20029;-72
2022/09/14 01:34:32;;;;;;;5.72;1.20;;;16.40;99.90;;;;;;5071457;28;20060;-72
2022/09/14 01:37:42;;;;;;;4.18;0.95;;;16.60;99.20;;;;;;5071150;28;20757;-72
2022/09/14 01:40:29;;;;;;;4.18;0.90;;;16.50;99.60;;;;;;5011188;28;20112;-72
2022/09/14 01:43:09;;;;;;;5.28;0.70;;;16.40;99.60;;;;;;5009142;28;20585;-72
2022/09/14 01:45:37;;;;;;;4.68;0.90;;;16.30;99.40;;;;;;5009276;28;20044;-72
2022/09/14 01:48:06;;;;;;;4.50;0.68;;;16.40;99.80;;;;;;5009356;28;20045;-72
2022/09/14 01:50:38;;;;;;;2.33;0.80;;;16.60;99.90;;;;;;5009112;28;20042;-72
2022/09/14 01:53:16;;;;;;;3.50;0.70;;;16.40;99.90;;;;;;5009275;28;20042;-72
2022/09/14 01:55:48;;;;;;;5.53;1.20;;;16.50;99.30;;;;;;5006921;28;20165;-73
2022/09/14 01:58:25;;;;;;;2.33;0.73;;;16.50;99.30;;;;;;5008937;28;20038;-72
2022/09/14 02:00:55;;;;;;;6.22;1.30;;;16.40;99.20;;;;;;5008644;28;20131;-72
2022/09/14 02:03:26;;;;;;;2.30;0.63;;;16.40;99.90;;;;;;5008765;28;20059;-72
2022/09/14 02:06:02;;;;;;;4.78;0.90;;;16.40;99.90;;;;;;5008624;28;20033;-72
2022/09/14 02:08:29;;;;;;;7.35;1.95;;;16.40;99.90;;;;;;5007515;28;20237;-72
2022/09/14 02:10:56;;;;;;;4.78;1.30;;;16.30;99.80;;;;;;5002864;28;20052;-72
2022/09/14 02:13:22;;;;;;;2.60;0.50;;;17.40;99.90;;;;;;5012726;28;20398;-72
2022/09/14 02:15:47;;;;;;;3.55;0.80;;;16.40;99.50;;;;;;5055467;28;20040;-71
2022/09/14 02:18:13;;;;;;;5.40;0.60;;;16.60;99.50;;;;;;5052487;28;20496;-72
2022/09/14 02:20:54;;;;;;;3.42;0.60;;;16.60;99.60;;;;;;5070439;28;20389;-72
2022/09/14 02:23:21;;;;;;;3.42;0.65;;;16.50;99.10;;;;;;5069891;28;20032;-72
2022/09/14 02:25:46;;;;;;;7.90;1.00;;;16.40;99.60;;;;;;5070267;28;20145;-72
2022/09/14 02:28:13;;;;;;;5.93;0.77;;;16.40;99.50;;;;;;5070149;28;20513;-73
2022/09/14 02:30:49;;;;;;;4.28;0.77;;;16.40;99.60;;;;;;5070241;28;20380;-73
2022/09/14 02:33:23;;;;;;;4.35;0.68;;;16.40;99.20;;;;;;5070685;28;20024;-73
2022/09/14 02:35:53;;;;;;;7.20;1.10;;;16.40;99.90;;;;;;5070062;28;20048;-73
2022/09/14 02:39:01;;;;;;;4.88;0.60;;;16.30;99.90;;;;;;5069650;28;20084;-73
2022/09/14 02:41:42;;;;;;;3.25;0.80;;;16.40;99.40;;;;;;5040854;28;20029;-73
2022/09/14 02:44:20;;;;;;;3.42;0.60;;;16.30;99.40;;;;;;5066758;28;20121;-73
2022/09/14 02:47:02;;;;;;;7.13;1.10;;;16.50;99.90;;;;;;5058363;28;20929;-73
2022/09/14 02:49:30;;;;;;;2.00;0.90;;;16.40;98.90;;;;;;5055558;28;20089;-73
2022/09/14 02:52:08;;;;;;;4.30;0.73;;;16.30;99.90;;;;;;5069431;28;20474;-73
2022/09/14 02:55:15;;;;;;;4.55;0.50;;;16.30;99.90;;;;;;5068800;28;20044;-74
2022/09/14 02:58:07;;;;;;;5.20;0.65;;;16.40;99.60;;;;;;5035290;28;20051;-73
2022/09/14 03:00:37;;;;;;;2.10;0.52;;;16.40;99.90;;;;;;5059022;28;20032;-73
2022/09/14 03:03:04;;;;;;;4.25;0.82;;;16.30;99.90;;;;;;5069594;28;20043;-73
2022/09/14 03:05:31;;;;;;;3.42;0.60;;;16.30;99.90;;;;;;5065844;28;20150;-73
2022/09/14 03:07:57;;;;;;;3.30;0.70;;;16.20;99.90;;;;;;5052539;28;20385;-73
2022/09/14 03:10:23;;;;;;;3.65;0.57;;;16.10;99.90;;;;;;5062129;28;20073;-73
2022/09/14 03:12:48;;;;;;;7.53;0.60;;;16.00;99.90;;;;;;5068232;28;20130;-73
2022/09/14 03:15:14;;;;;;;2.25;0.47;;;16.00;99.90;;;;;;5068240;28;20024;-73
2022/09/14 03:17:45;;;;;;;4.32;0.70;;;15.90;99.90;;;;;;5058390;28;20013;-73
2022/09/14 03:20:11;;;;;;;6.65;1.13;;;15.90;99.90;;;;;;5047619;28;20033;-73
2022/09/14 03:22:36;;;;;;;4.80;1.20;;;15.90;99.90;;;;;;5057928;28;20058;-72
2022/09/14 03:25:02;;;;;;;5.70;0.73;;;15.70;99.90;;;;;;5070392;28;20115;-73
2022/09/14 03:27:27;;;;;;;2.20;0.55;;;15.80;99.90;;;;;;5068640;28;20032;-73
2022/09/14 03:29:53;;;;;;;3.17;0.60;;;15.70;99.90;;;;;;5069471;28;20039;-74
2022/09/14 03:32:18;;;;;;;4.10;0.98;;;15.70;99.90;;;;;;5069253;28;20021;-73
2022/09/14 03:34:44;;;;;;;2.30;0.80;;;15.60;99.90;;;;;;5070013;28;20482;-74
2022/09/14 03:37:09;;;;;;;3.90;0.50;;;15.50;99.90;;;;;;5042567;28;20034;-72
2022/09/14 03:39:35;;;;;;;4.13;0.68;;;15.60;99.90;;;;;;5058129;28;20024;-73
2022/09/14 03:42:00;;;;;;;2.78;0.70;;;15.50;99.90;;;;;;5061128;28;20168;-73
2022/09/14 03:44:26;;;;;;;3.80;0.82;;;15.50;99.90;;;;;;5059487;28;20490;-73
2022/09/14 03:46:51;;;;;;;2.65;0.77;;;15.80;99.90;;;;;;5048921;28;20022;-73
2022/09/14 03:49:17;;;;;;;5.90;0.77;;;15.50;99.90;;;;;;5047879;28;20024;-73
2022/09/14 03:51:42;;;;;;;3.78;0.70;;;15.50;99.90;;;;;;5048435;28;20032;-73
2022/09/14 03:54:08;;;;;;;2.50;0.80;;;15.60;99.90;;;;;;5049376;28;20032;-73
2022/09/14 03:56:33;;;;;;;5.03;0.70;;;15.60;99.90;;;;;;5051064;28;20021;-73
2022/09/14 03:58:59;;;;;;;7.05;0.73;;;15.60;99.90;;;;;;5053241;28;20021;-73
2022/09/14 04:01:24;;;;;;;6.20;0.80;;;15.60;99.90;;;;;;5053108;28;20023;-72
2022/09/14 04:03:50;;;;;;;3.45;0.70;;;15.60;99.90;;;;;;5052759;28;20696;-73
2022/09/14 04:06:17;;;;;;;3.30;0.70;;;15.60;99.90;;;;;;5045296;28;20033;-73
2022/09/14 04:08:44;;;;;;;6.00;1.13;;;16.00;99.90;;;;;;5049499;28;20032;-73
2022/09/14 04:11:24;;;;;;;6.18;0.90;;;15.60;99.90;;;;;;5052969;28;20021;-73
2022/09/14 04:13:50;;;;;;;1.98;0.88;;;15.70;99.90;;;;;;5041698;28;20363;-73
2022/09/14 04:16:19;;;;;;;2.50;0.80;;;15.70;99.90;;;;;;5041592;28;20083;-73
2022/09/14 04:18:45;;;;;;;4.03;0.90;;;15.60;99.90;;;;;;5056871;28;20490;-73
2022/09/14 04:21:16;;;;;;;3.70;0.77;;;15.60;99.90;;;;;;5072864;28;20115;-73
2022/09/14 04:23:42;;;;;;;7.20;1.20;;;15.60;99.90;;;;;;5072420;28;20119;-73
2022/09/14 04:26:17;;;;;;;3.15;0.75;;;15.50;99.90;;;;;;5070133;28;20150;-72
2022/09/14 04:28:43;;;;;;;3.65;0.65;;;15.50;99.90;;;;;;5068911;28;20484;-73
2022/09/14 04:31:10;;;;;;;3.63;0.80;;;15.40;99.90;;;;;;5072635;28;20059;-74
2022/09/14 04:33:38;;;;;;;2.83;0.60;;;15.50;99.90;;;;;;5072170;28;20028;-73
2022/09/14 04:36:11;;;;;;;3.03;0.80;;;15.50;99.90;;;;;;5072785;28;20028;-73
2022/09/14 04:38:38;;;;;;;5.25;0.80;;;15.50;99.90;;;;;;5072303;28;20420;-73
2022/09/14 04:41:06;;;;;;;3.65;0.60;;;15.50;99.90;;;;;;5072410;28;20035;-73
2022/09/14 04:43:32;;;;;;;6.70;0.80;;;15.50;99.90;;;;;;5072173;28;20056;-73
2022/09/14 04:46:11;;;;;;;7.25;1.23;;;15.50;99.90;;;;;;5072133;28;20028;-74
2022/09/14 04:48:36;;;;;;;2.72;0.80;;;15.60;99.90;;;;;;5072003;28;20020;-73
2022/09/14 04:51:04;;;;;;;5.95;0.70;;;15.50;99.90;;;;;;5072097;28;20095;-73
2022/09/14 04:53:32;;;;;;;5.00;0.90;;;15.50;99.90;;;;;;5072331;28;20077;-73
2022/09/14 04:56:06;;;;;;;7.45;1.00;;;15.50;99.90;;;;;;5055404;28;20032;-73
2022/09/14 04:58:32;;;;;;;3.00;0.88;;;15.50;99.90;;;;;;5052226;28;20466;-73
2022/09/14 05:01:07;;;;;;;6.00;1.02;;;15.40;99.90;;;;;;5051981;28;20031;-73
2022/09/14 05:03:33;;;;;;;4.50;0.90;;;15.50;99.90;;;;;;5051503;28;20398;-73
2022/09/14 05:06:03;;;;;;;2.55;0.98;;;15.50;99.90;;;;;;5051882;28;20020;-73
2022/09/14 05:08:29;;;;;;;4.30;1.10;;;15.50;99.90;;;;;;5050993;28;20036;-73
2022/09/14 05:10:55;;;;;;;5.93;1.35;;;15.50;99.90;;;;;;5051740;28;20401;-73
2022/09/14 05:13:22;;;;;;;5.85;1.17;;;15.40;99.90;;;;;;5051945;28;20025;-73
2022/09/14 05:15:48;;;;;;;4.65;1.05;;;15.50;99.90;;;;;;5051485;28;20083;-73
2022/09/14 05:18:14;;;;;;;2.58;0.90;;;15.50;99.90;;;;;;5051763;28;20029;-73
2022/09/14 05:20:39;;;;;;;8.57;1.13;;;15.50;99.90;;;;;;5071550;28;20051;-73
2022/09/14 05:23:05;;;;;;;5.55;1.20;;;15.50;99.90;;;;;;5071299;28;20079;-73
2022/09/14 05:25:30;;;;;;;3.47;1.70;;;15.50;99.90;;;;;;5055586;28;20035;-73
2022/09/14 05:27:56;;;;;;;4.70;1.42;;;15.50;99.90;;;;;;5071485;28;20039;-73
2022/09/14 05:30:21;;;;;;;3.88;1.00;;;15.50;99.90;;;;;;5070064;28;20465;-73
2022/09/14 05:32:47;;;;;;;4.18;1.33;;;15.50;99.90;;;;;;5070954;28;20068;-73
2022/09/14 05:35:12;;;;;;;4.07;1.02;;;15.60;99.90;;;;;;5071082;28;20119;-72
2022/09/14 05:37:38;;;;;;;10.30;1.77;;;15.50;99.90;;;;;;5071416;28;20028;-73
2022/09/14 05:40:05;;;;;;;7.72;1.40;;;15.50;99.90;;;;;;5071471;28;20448;-73
2022/09/14 05:42:30;;;;;;;9.40;1.63;;;15.50;99.90;;;;;;5070001;28;20029;-73
2022/09/14 05:44:56;;;;;;;3.78;1.15;;;15.50;99.90;;;;;;5051057;28;20469;-73
2022/09/14 05:47:21;;;;;;;7.65;1.90;;;15.50;99.90;;;;;;5049647;28;20033;-73
2022/09/14 05:49:47;;;;;;;7.18;2.00;;;15.40;99.90;;;;;;5051230;28;20553;-73
2022/09/14 05:52:12;;;;;;;6.22;1.88;;;15.50;99.90;;;;;;5051196;28;20031;-73
2022/09/14 05:54:38;;;;;;;4.90;2.17;;;15.40;99.90;;;;;;5041700;28;20029;-74
2022/09/14 05:57:03;;;;;;;5.75;2.00;;;15.50;99.90;;;;;;5051074;28;20043;-73
2022/09/14 05:59:30;;;;;;;7.78;2.05;;;15.40;99.90;;;;;;5051784;28;20024;-73
2022/09/14 06:01:56;;;;;;;7.93;2.63;;;15.50;99.90;;;;;;5050814;28;20025;-78
2022/09/14 06:04:22;;;;;;;6.97;2.40;;;15.50;99.90;;;;;;5051609;28;20028;-74
2022/09/14 06:06:48;;;;;;;4.18;1.90;;;15.50;99.90;;;;;;5050904;28;20467;-74
2022/09/14 06:09:14;;;;;;;5.85;1.65;;;15.50;99.90;;;;;;5050939;28;20047;-75
2022/09/14 06:11:40;;;;;;;3.42;1.35;;;15.50;99.90;;;;;;5050611;28;20013;-75
2022/09/14 06:14:06;;;;;;;4.95;1.10;;;15.50;99.90;;;;;;5050773;28;20106;-74
2022/09/14 06:16:32;;;;;;;4.25;1.27;;;15.50;99.90;;;;;;5050039;28;20021;-75
2022/09/14 06:18:59;;;;;;;5.38;1.48;;;15.90;99.90;;;;;;5056747;28;20029;-74
2022/09/14 06:21:29;;;;;;;7.53;1.15;;;15.60;99.90;;;;;;5070643;28;20029;-74
2022/09/14 06:23:55;;;;;;;5.57;0.80;;;15.60;99.90;;;;;;5058956;28;20408;-74
2022/09/14 06:26:20;;;;;;;4.75;0.95;;;15.60;99.90;;;;;;5061752;28;20033;-75
2022/09/14 06:28:46;;;;;;;4.30;1.38;;;15.60;99.90;;;;;;5070260;28;20036;-74
2022/09/14 06:31:13;;;;;;;3.92;1.60;;;15.70;99.90;;;;;;5069916;28;20024;-74
2022/09/14 06:33:43;;;;;;;3.35;1.38;;;15.60;99.90;;;;;;5069980;28;20469;-74
2022/09/14 06:36:12;;;;;;;5.55;1.40;;;15.60;99.90;;;;;;5070566;28;20094;-74
2022/09/14 06:38:39;;;;;;;4.72;1.60;;;15.60;99.90;;;;;;5068759;28;20032;-75
2022/09/14 06:41:07;;;;;;;3.72;1.13;;;15.50;99.90;;;;;;5070324;28;20023;-75
2022/09/14 06:43:35;;;;;;;4.93;1.42;;;15.60;99.90;;;;;;5069722;28;20039;-74
2022/09/14 06:46:02;;;;;;;6.00;1.20;;;15.50;99.90;;;;;;5070048;28;20024;-74
2022/09/14 06:48:33;;;;;;;4.85;1.70;;;16.30;99.90;;;;;;5070163;28;20036;-74
2022/09/14 06:50:58;;;;;;;6.65;1.65;;;15.60;99.90;;;;;;5043469;28;20269;-74
2022/09/14 06:53:24;;;;;;;3.47;1.58;;;15.60;99.90;;;;;;5059583;28;20553;-74
2022/09/14 06:55:50;;;;;;;9.43;2.92;;;15.60;99.90;;;;;;5069623;28;20020;-74
2022/09/14 06:58:15;;;;;;;5.00;1.98;;;15.60;99.90;;;;;;5065022;28;20131;-74
2022/09/14 07:00:41;;;;;;;5.70;1.90;;;15.60;99.90;;;;;;5055405;28;20037;-74
2022/09/14 07:03:07;;;;;;;6.70;1.50;;;15.60;99.90;;;;;;5048970;28;20025;-73
2022/09/14 07:05:33;;;;;;;5.72;1.80;;;15.80;99.90;;;;;;5049228;28;20448;-74
2022/09/14 07:07:58;;;;;;;5.10;1.30;;;15.80;99.90;;;;;;5063210;28;20052;-74
2022/09/14 07:10:26;;;;;;;3.78;1.52;;;15.70;99.90;;;;;;5057225;28;20078;-74
2022/09/14 07:12:53;;;;;;;5.05;1.50;;;15.80;99.90;;;;;;5049816;28;20028;-74
2022/09/14 07:15:19;;;;;;;9.70;1.80;;;15.80;99.90;;;;;;5062873;28;20043;-74
2022/09/14 07:17:46;;;;;;;8.15;1.42;;;15.70;99.90;;;;;;5046850;28;20017;-74
2022/09/14 07:20:11;;;;;;;4.35;1.70;;;15.80;99.90;;;;;;5038425;28;20025;-74
2022/09/14 07:22:37;;;;;;;4.38;1.67;;;15.70;99.90;;;;;;5057385;28;20393;-74
2022/09/14 07:25:03;;;;;;;8.10;1.65;;;15.70;99.90;;;;;;5063520;28;20024;-74
2022/09/14 07:27:28;;;;;;;3.28;1.60;;;15.70;99.90;;;;;;5047647;28;20032;-74
2022/09/14 07:29:54;;;;;;;2.45;1.33;;;15.80;99.90;;;;;;5049790;28;20442;-74
2022/09/14 07:32:20;;;;;;;5.75;1.27;;;15.80;99.90;;;;;;5055232;28;20017;-75
2022/09/14 07:34:45;;;;;;;3.15;1.05;;;15.80;99.90;;;;;;5054377;28;20032;-74
2022/09/14 07:37:11;;;;;;;4.38;1.67;;;15.90;99.90;;;;;;5055430;28;20116;-75
2022/09/14 07:39:37;;;;;;;2.55;1.15;;;15.90;99.90;;;;;;5054275;28;20021;-74
2022/09/14 07:42:02;;;;;;;7.57;2.60;;;15.90;99.90;;;;;;5054364;28;20032;-74
2022/09/14 07:44:28;;;;;;;4.03;1.30;;;15.80;99.90;;;;;;5055545;28;20573;-74
2022/09/14 07:46:54;;;;;;;7.88;1.63;;;15.80;99.90;;;;;;5062302;28;20088;-74
2022/09/14 07:49:20;;;;;;;7.43;2.80;;;16.30;99.90;;;;;;5055993;28;20101;-74
2022/09/14 07:51:47;;;;;;;6.68;1.75;;;15.80;99.90;;;;;;5069420;28;20028;-74
2022/09/14 07:54:15;;;;;;;4.47;1.60;;;15.90;99.90;;;;;;5067060;28;20048;-73
2022/09/14 07:56:42;;;;;;;5.35;1.73;;;16.10;99.90;;;;;;5066158;28;20032;-72
2022/09/14 07:59:10;;;;;;;6.50;1.85;;;15.80;99.90;;;;;;5067201;28;20032;-74
2022/09/14 08:01:36;;;;;;;7.53;2.95;;;16.10;99.90;;;;;;5066163;28;20091;-74
2022/09/14 08:04:02;;;;;;;6.30;1.67;;;16.10;99.90;;;;;;5067769;28;20027;-73
2022/09/14 08:06:29;;;;;;;3.75;1.85;;;16.10;99.90;;;;;;5066243;28;20021;-73
2022/09/14 08:08:55;;;;;;;8.70;2.20;;;16.10;99.90;;;;;;5061610;28;20425;-74
2022/09/14 08:11:33;;;;;;;7.07;3.08;;;16.10;99.90;;;;;;5064779;28;20056;-73
2022/09/14 08:14:02;;;;;;;9.07;2.42;;;16.10;99.90;;;;;;5055941;28;20050;-74
2022/09/14 08:16:29;;;;;;;6.28;2.28;;;16.10;99.90;;;;;;5054752;28;20029;-74
2022/09/14 08:18:57;;;;;;;2.65;1.95;;;16.10;99.90;;;;;;5041748;28;20037;-73
2022/09/14 08:21:23;;;;;;;3.55;1.50;;;16.10;99.90;;;;;;5045101;28;20127;-72
2022/09/14 08:23:49;;;;;;;7.32;1.83;;;16.10;99.90;;;;;;5058218;28;20485;-73
2022/09/14 08:26:17;;;;;;;6.78;2.17;;;16.10;99.90;;;;;;5074005;28;20385;-73
2022/09/14 08:28:44;;;;;;;7.78;2.20;;;16.10;99.90;;;;;;5075405;28;20037;-73
2022/09/14 08:31:12;;;;;;;5.93;3.45;;;16.20;99.90;;;;;;5075649;28;20029;-72
2022/09/14 08:33:43;;;;;;;8.20;2.33;;;16.20;99.90;;;;;;5072689;28;20025;-73
2022/09/14 08:36:10;;;;;;;9.07;3.28;;;16.20;99.90;;;;;;5074691;28;20051;-73
2022/09/14 08:38:37;;;;;;;8.82;2.17;;;16.10;99.90;;;;;;5073146;28;20086;-72
2022/09/14 08:41:47;;;;;;;11.05;3.42;;;16.10;99.90;;;;;;5052802;28;20490;-72
2022/09/14 08:44:22;;;;;;;5.57;3.03;;;16.10;99.90;;;;;;5050404;28;20612;-72
2022/09/14 08:47:02;;;;;;;8.57;2.72;;;16.00;99.90;;;;;;5051845;28;20096;-72
2022/09/14 08:49:59;;;;;;;7.65;4.20;;;16.10;99.90;;;;;;5062032;28;20028;-73
2022/09/14 08:52:31;;;;;;;10.82;3.53;;;16.30;99.90;;;;;;5057840;28;20078;-74
2022/09/14 08:55:13;;;;;;;7.20;3.00;;;16.40;99.90;;;;;;5056369;28;20471;-73
2022/09/14 08:57:44;;;;;;;6.13;2.85;;;16.20;99.90;;;;;;5054291;28;20032;-73
2022/09/14 09:00:16;;;;;;;9.45;3.38;;;16.10;99.90;;;;;;5065881;28;20024;-73
2022/09/14 09:02:58;;;;;;;7.47;2.97;;;16.20;99.90;;;;;;5045822;28;20037;-74
2022/09/14 09:05:39;;;;;;;6.72;2.88;;;16.10;99.90;;;;;;5040779;28;20530;-74
2022/09/14 09:08:18;;;;;;;5.60;2.42;;;15.80;99.90;;;;;;5054791;28;20393;-74
2022/09/14 09:10:45;;;;;;;3.60;2.28;;;16.10;99.90;;;;;;5057361;28;20032;-73
2022/09/14 09:13:18;;;;;;;7.53;2.88;;;16.10;99.90;;;;;;5050490;28;20112;-74
2022/09/14 09:15:54;;;;;;;7.80;2.70;;;16.20;99.90;;;;;;5048461;28;20021;-74
2022/09/14 09:18:41;;;;;;;3.08;2.03;;;16.20;99.90;;;;;;5059461;28;20105;-75
2022/09/14 09:21:22;;;;;;;4.53;2.65;;;16.30;99.90;;;;;;5046980;28;20021;-75
2022/09/14 09:23:48;;;;;;;5.32;2.90;;;16.10;99.90;;;;;;5047048;28;20083;-74
2022/09/14 09:26:25;;;;;;;5.95;2.40;;;17.30;99.90;;;;;;5040080;28;20426;-75
2022/09/14 09:28:53;;;;;;;5.35;2.28;;;16.40;99.90;;;;;;5049747;28;20113;-75
2022/09/14 09:31:32;;;;;;;7.38;1.88;;;16.30;99.90;;;;;;5050776;28;20060;-75
2022/09/14 09:33:58;;;;;;;8.23;2.17;;;16.30;99.90;;;;;;5050951;28;20083;-74
2022/09/14 09:36:23;;;;;;;6.00;2.45;;;16.40;99.90;;;;;;5050194;28;20036;-75
2022/09/14 09:38:49;;;;;;;7.38;2.83;;;16.40;99.90;;;;;;5063988;28;20043;-75
2022/09/14 09:41:26;;;;;;;6.55;2.83;;;16.50;99.90;;;;;;5060006;28;20032;-75
2022/09/14 09:44:00;;;;;;;2.95;2.40;;;16.40;99.90;;;;;;5063202;28;20055;-75
2022/09/14 09:46:31;;;;;;;5.05;2.40;;;16.50;99.90;;;;;;5044429;28;20489;-75
2022/09/14 09:48:58;;;;;;;11.52;1.98;;;16.50;99.90;;;;;;5054837;28;20132;-74
2022/09/14 09:51:23;;;;;;;5.80;2.45;;;16.50;99.90;;;;;;5055900;28;20037;-75
2022/09/14 09:53:54;;;;;;;7.25;2.17;;;16.60;99.90;;;;;;5046810;28;20027;-74
2022/09/14 09:56:26;;;;;;;5.85;2.53;;;16.50;99.90;;;;;;5042549;28;20116;-75
2022/09/14 09:58:52;;;;;;;10.00;2.88;;;16.40;99.90;;;;;;5049637;28;20086;-74
2022/09/14 10:01:17;;;;;;;5.78;1.90;;;16.40;99.90;;;;;;5048821;28;20036;-73
2022/09/14 10:03:50;;;;;;;4.53;2.40;;;16.40;99.90;;;;;;5050650;28;20040;-74
2022/09/14 10:06:16;;;;;;;8.40;2.85;;;16.40;99.90;;;;;;5054815;28;20494;-73
2022/09/14 10:08:46;;;;;;;3.92;2.20;;;16.50;99.90;;;;;;5050151;28;20029;-74
2022/09/14 10:11:44;;;;;;;7.20;2.40;;;16.30;99.90;;;;;;5049589;28;20021;-73
2022/09/14 10:14:32;;;;;;;7.07;2.85;;;16.40;99.90;;;;;;5013345;28;20029;-73
2022/09/14 10:17:17;;;;;;;3.65;1.92;;;16.30;99.90;;;;;;5044567;28;20033;-73
2022/09/14 10:19:51;;;;;;;5.03;2.50;;;16.50;99.90;;;;;;5057475;28;20101;-73
2022/09/14 10:22:16;;;;;;;5.25;3.13;;;17.30;99.90;;;;;;5049186;28;20135;-73
2022/09/14 10:25:19;;;;;;;9.25;2.88;;;16.30;99.90;;;;;;5056847;28;20135;-73
2022/09/14 10:27:55;;;;;;;5.97;2.70;;;16.30;99.90;;;;;;5066302;28;20087;-74
2022/09/14 10:30:26;;;;;;;6.68;2.67;;;16.30;99.90;;;;;;5067523;28;20024;-73
2022/09/14 10:33:00;;;;;;;5.68;2.67;;;16.40;99.90;;;;;;5059839;28;20052;-73
2022/09/14 10:36:13;;;;;;;5.57;2.78;;;16.60;99.90;;;;;;5062670;28;20028;-72
2022/09/14 10:38:45;;;;;;;6.45;2.65;;;16.60;99.90;;;;;;5021758;28;20124;-73
2022/09/14 10:41:35;;;;;;;6.82;3.40;;;16.80;99.90;;;;;;5051524;28;20036;-73
2022/09/14 10:44:13;;;;;;;8.85;3.85;;;16.90;99.90;;;;;;5052917;28;20080;-73
2022/09/14 10:47:20;;;;;;;5.53;2.85;;;16.80;99.90;;;;;;5052346;28;20029;-74
2022/09/14 10:50:12;;;;;;;3.78;2.80;;;16.90;99.90;;;;;;5036024;28;20029;-74
2022/09/14 10:53:11;;;;;;;10.45;4.07;;;16.90;99.90;;;;;;5049342;28;20667;-73
2022/09/14 10:56:09;;;;;;;7.07;3.28;;;16.90;99.90;;;;;;5040128;28;20025;-74
2022/09/14 10:59:09;;;;;;;5.97;3.97;;;17.00;99.90;;;;;;5062508;28;20040;-74
2022/09/14 11:01:53;;;;;;;6.75;4.03;;;16.80;99.90;;;;;;5061405;28;20469;-74
2022/09/14 11:04:39;;;;;;;7.15;3.97;;;16.80;99.90;;;;;;5052803;28;20552;-74
2022/09/14 11:07:12;;;;;;;7.47;5.10;;;16.70;99.90;;;;;;5057160;28;20029;-74
2022/09/14 11:09:54;;;;;;;8.25;5.07;;;16.70;99.90;;;;;;5049110;28;20023;-74
2022/09/14 11:12:42;;;;;;;3.92;3.35;;;16.70;99.90;;;;;;5048800;28;20018;-75
2022/09/14 11:15:23;;;;;;;7.15;4.03;;;16.70;99.90;;;;;;5040753;28;20073;-74
2022/09/14 11:18:07;;;;;;;7.45;4.35;;;16.70;99.90;;;;;;5049263;28;20065;-76
2022/09/14 11:20:51;;;;;;;;;;;16.80;99.90;;;;;;5069578;28;20039;-78
2022/09/14 11:23:38;;;;;;;7.35;4.18;;;16.80;99.90;;;;;;5069334;28;19919;-75
2022/09/14 11:26:31;;;;;;;8.98;4.95;;;16.90;99.90;;;;;;5052431;28;20566;-75
2022/09/14 11:29:26;;;;;;;7.57;4.35;;;17.00;99.90;;;;;;5056120;28;20024;-75
2022/09/14 11:32:03;;;;;;;6.13;4.60;;;17.00;99.90;;;;;;5050547;28;20032;-75
2022/09/14 11:34:44;;;;;;;7.80;5.43;;;17.00;99.90;;;;;;5069165;28;20024;-75
2022/09/14 11:37:14;;;;;;;7.05;4.60;;;16.90;99.90;;;;;;5066462;28;20016;-75
2022/09/14 11:39:47;;;;;;;7.03;3.97;;;16.90;99.90;;;;;;5049215;28;20375;-75
2022/09/14 11:42:29;;;;;;;4.78;3.72;;;17.10;99.90;;;;;;5049402;28;20029;-75
2022/09/14 11:45:13;;;;;;;5.72;4.05;;;17.20;99.90;;;;;;5048918;28;20124;-75
2022/09/14 11:47:45;;;;;;;6.97;4.40;;;17.20;99.90;;;;;;5058416;28;20071;-73
2022/09/14 11:50:25;;;;;;;8.07;5.70;;;17.30;99.90;;;;;;5048688;28;20116;-75
2022/09/14 11:53:12;;;;;;;9.35;4.68;;;17.30;99.90;;;;;;5050741;28;20499;-75
2022/09/14 11:55:44;;;;;;;8.20;4.70;;;17.40;99.90;;;;;;5062766;28;20013;-75
2022/09/14 11:58:25;;;;;;;7.18;5.63;;;17.40;99.90;;;;;;5060703;28;20028;-75
2022/09/14 12:00:50;;;;;;;8.40;4.47;;;17.40;99.90;;;;;;5050973;28;20099;-75
2022/09/14 12:03:20;;;;;;;9.30;5.45;;;17.50;99.90;;;;;;5045132;28;20204;-75
2022/09/14 12:05:48;;;;;;;10.48;5.63;;;17.60;99.90;;;;;;5048957;28;20723;-74
2022/09/14 12:08:41;;;;;;;5.95;5.13;;;17.60;99.90;;;;;;5063696;28;20024;-75
2022/09/14 12:11:06;;;;;;;6.28;4.93;;;17.60;99.90;;;;;;5042443;28;20120;-74
2022/09/14 12:13:33;;;;;;;7.22;5.28;;;17.80;99.90;;;;;;5044870;28;20057;-75
2022/09/14 12:16:07;;;;;;;6.35;5.28;;;17.90;99.90;;;;;;5042104;28;20103;-76
2022/09/14 12:18:36;;;;;;;10.48;5.20;;;17.90;99.90;;;;;;5052325;28;20048;-74
2022/09/14 12:21:16;;;;;;;7.25;4.38;;;18.70;99.90;;;;;;5054326;28;20150;-75
2022/09/14 12:23:45;;;;;;;8.52;4.78;;;17.90;99.90;;;;;;5051746;28;20037;-75
2022/09/14 12:26:10;;;;;;;7.32;4.50;;;17.90;99.90;;;;;;5047713;28;20189;-75
2022/09/14 12:28:39;;;;;;;5.05;4.57;;;17.90;99.90;;;;;;5044215;28;20117;-75
2022/09/14 12:31:05;;;;;;;8.50;4.05;;;16.80;99.90;;;;;;5051852;28;20107;-75
2022/09/14 12:33:33;;;;;;;7.22;4.40;;;18.10;99.90;;;;;;5052244;28;20131;-74
2022/09/14 12:36:21;;;;;;;6.90;4.80;;;18.20;99.90;;;;;;5059305;28;20024;-74
2022/09/14 12:38:53;;;;;;;8.40;4.65;;;18.20;99.90;;;;;;5060039;28;20040;-75
2022/09/14 12:41:18;;;;;;;6.43;4.53;;;18.30;99.90;;;;;;5051777;28;20025;-74
2022/09/14 12:43:44;;;;;;;9.82;4.72;;;18.30;99.90;;;;;;5063778;28;20480;-73
2022/09/14 12:46:31;;;;;;;7.65;4.00;;;18.40;99.90;;;;;;5053017;28;20381;-74
2022/09/14 12:49:21;;;;;;;6.45;4.28;;;18.50;99.90;;;;;;5064594;28;20700;-74
2022/09/14 12:51:48;;;;;;;6.75;3.85;;;18.60;99.90;;;;;;5034480;28;20036;-74
2022/09/14 12:54:30;;;;;;;8.77;4.20;;;18.60;99.90;;;;;;5067397;28;20097;-74
2022/09/14 12:57:14;;;;;;;9.38;4.45;;;18.60;99.90;;;;;;5047612;28;20099;-74
2022/09/14 13:00:10;;;;;;;4.63;3.90;;;18.60;99.90;;;;;;5048728;28;20386;-74
2022/09/14 13:02:57;;;;;;;7.20;4.85;;;18.80;99.90;;;;;;5065089;28;20055;-75
2022/09/14 13:05:25;;;;;;;9.65;4.47;;;18.80;99.90;;;;;;5042279;28;20029;-75
2022/09/14 13:07:53;;;;;;;7.03;4.53;;;18.80;99.90;;;;;;5051603;28;20100;-75
2022/09/14 13:10:24;;;;;;;6.80;5.03;;;18.70;99.90;;;;;;5065083;28;20025;-75
2022/09/14 13:12:51;;;;;;;9.13;5.15;;;18.90;99.90;;;;;;5052179;28;20028;-75